createdAt,value
2018-04-20T00:02:17.539Z,91.80
2018-04-20T00:04:46.642Z,90.50
2018-04-20T00:07:14.985Z,90.50
2018-04-20T00:09:44.044Z,90.60
2018-04-20T00:12:12.340Z,90.60
2018-04-20T00:14:40.782Z,90.80
2018-04-20T00:17:09.070Z,91.20
2018-04-20T00:19:37.382Z,91.40
2018-04-20T00:22:06.490Z,92.00
2018-04-20T00:24:34.786Z,92.00
2018-04-20T00:27:03.082Z,92.10
2018-04-20T00:29:31.418Z,92.40
2018-04-20T00:32:00.479Z,91.80
2018-04-20T00:34:28.769Z,91.80
2018-04-20T00:36:57.901Z,92.00
2018-04-20T00:39:26.190Z,91.70
2018-04-20T00:41:54.482Z,91.70
2018-04-20T00:44:22.815Z,91.80
2018-04-20T00:46:51.878Z,92.10
2018-04-20T00:49:20.216Z,92.10
2018-04-20T00:51:48.517Z,92.00
2018-04-20T00:54:30.763Z,92.10
2018-04-20T00:56:59.876Z,92.00
2018-04-20T00:59:28.218Z,92.00
2018-04-20T01:01:56.506Z,92.10
2018-04-20T01:04:25.639Z,91.60
2018-04-20T01:06:53.930Z,91.60
2018-04-20T01:09:22.230Z,91.60
2018-04-20T01:11:50.568Z,91.60
2018-04-20T01:14:18.858Z,91.90
2018-04-20T01:16:47.201Z,91.60
2018-04-20T01:19:16.318Z,91.90
2018-04-20T01:21:44.610Z,91.90
2018-04-20T01:24:13.880Z,91.60
2018-04-20T01:26:42.218Z,91.60
2018-04-20T01:29:10.566Z,91.50
2018-04-20T01:31:38.857Z,91.60
2018-04-20T01:34:07.211Z,91.80
2018-04-20T01:36:35.550Z,91.40
2018-04-20T01:39:04.662Z,91.40
2018-04-20T01:41:33.714Z,91.80
2018-04-20T01:44:02.216Z,91.80
2018-04-20T01:46:30.542Z,91.70
2018-04-20T01:48:58.817Z,91.90
2018-04-20T01:51:27.161Z,91.80
2018-04-20T01:53:57.243Z,92.00
2018-04-20T01:56:25.590Z,92.00
2018-04-20T01:58:53.886Z,92.00
2018-04-20T02:01:22.251Z,91.90
2018-04-20T02:03:50.542Z,92.20
2018-04-20T02:06:18.830Z,91.70
2018-04-20T02:08:47.177Z,92.10
2018-04-20T02:11:15.514Z,92.40
2018-04-20T02:13:44.636Z,92.10
2018-04-20T02:16:12.978Z,92.00
2018-04-20T02:18:41.327Z,91.80
2018-04-20T02:21:09.619Z,92.00
2018-04-20T02:23:37.975Z,91.90
2018-04-20T02:26:06.262Z,91.90
2018-04-20T02:28:34.558Z,91.80
2018-04-20T02:31:02.962Z,91.90
2018-04-20T02:33:31.238Z,91.80
2018-04-20T02:36:00.342Z,92.10
2018-04-20T02:38:29.454Z,91.50
2018-04-20T02:40:57.746Z,91.50
2018-04-20T02:43:26.088Z,91.30
2018-04-20T02:45:55.156Z,91.10
2018-04-20T02:48:29.383Z,91.10
2018-04-20T02:50:58.458Z,91.10
2018-04-20T02:53:26.831Z,91.10
2018-04-20T02:55:55.132Z,91.10
2018-04-20T02:58:23.418Z,91.30
2018-04-20T03:00:52.539Z,91.60
2018-04-20T03:03:20.834Z,91.60
2018-04-20T03:05:49.130Z,91.30
2018-04-20T03:08:17.578Z,91.80
2018-04-20T03:10:45.866Z,91.90
2018-04-20T03:13:14.163Z,92.00
2018-04-20T03:15:42.511Z,91.40
2018-04-20T03:21:09.206Z,91.50
2018-04-20T03:23:37.578Z,91.90
2018-04-20T03:26:05.883Z,91.80
2018-04-20T03:28:34.181Z,91.60
2018-04-20T03:31:03.291Z,91.80
2018-04-20T03:33:31.593Z,91.80
2018-04-20T03:35:59.937Z,92.00
2018-04-20T03:38:28.237Z,91.50
2018-04-20T03:40:56.576Z,91.50
2018-04-20T03:43:25.686Z,91.30
2018-04-20T03:45:54.798Z,91.20
2018-04-20T03:48:23.098Z,91.20
2018-04-20T03:50:51.571Z,91.90
2018-04-20T03:53:19.869Z,91.80
2018-04-20T03:55:48.167Z,92.00
2018-04-20T03:58:16.514Z,92.00
2018-04-20T04:00:44.805Z,91.50
2018-04-20T04:03:13.155Z,91.50
2018-04-20T04:05:41.501Z,92.10
2018-04-20T04:08:10.565Z,91.80
2018-04-20T04:10:38.914Z,91.80
2018-04-20T04:13:07.214Z,91.40
2018-04-20T04:15:35.572Z,91.40
2018-04-20T04:18:15.667Z,91.50
2018-04-20T04:20:49.537Z,91.80
2018-04-20T04:23:29.634Z,92.00
2018-04-20T04:39:33.393Z,91.70
2018-04-20T04:42:01.744Z,92.00
2018-04-20T04:44:30.038Z,92.10
2018-04-20T04:46:58.425Z,92.00
2018-04-20T04:49:26.751Z,91.60
2018-04-20T04:51:55.089Z,91.70
2018-04-20T04:54:23.396Z,91.60
2018-04-20T04:56:51.780Z,91.70
2018-04-20T04:59:20.081Z,91.60
2018-04-20T05:04:21.071Z,91.70
2018-04-20T05:06:49.446Z,92.00
2018-04-20T05:09:18.041Z,91.70
2018-04-20T05:11:46.337Z,91.80
2018-04-20T05:14:14.633Z,91.60
2018-04-20T05:16:42.976Z,91.70
2018-04-20T05:19:11.273Z,91.80
2018-04-20T05:21:39.678Z,90.90
2018-04-20T05:24:08.097Z,91.10
2018-04-20T05:26:36.374Z,91.20
2018-04-20T05:29:04.668Z,91.00
2018-04-20T05:31:34.513Z,90.70
2018-04-20T05:34:03.621Z,91.10
2018-04-20T05:36:32.680Z,91.20
2018-04-20T05:39:01.029Z,91.20
2018-04-20T05:41:29.344Z,91.30
2018-04-20T05:43:57.639Z,91.50
2018-04-20T05:46:25.995Z,91.40
2018-04-20T05:48:54.293Z,91.60
2018-04-20T05:51:22.581Z,91.40
2018-04-20T05:53:50.921Z,91.50
2018-04-20T05:56:19.273Z,92.00
2018-04-20T05:58:47.609Z,91.80
2018-04-20T06:01:15.969Z,91.60
2018-04-20T06:03:45.029Z,91.60
2018-04-20T06:06:14.133Z,91.40
2018-04-20T06:08:43.192Z,91.30
2018-04-20T06:11:11.551Z,91.30
2018-04-20T06:13:39.901Z,90.60
2018-04-20T06:16:08.189Z,90.70
2018-04-20T06:18:36.534Z,90.30
2018-04-20T06:21:04.813Z,90.10
2018-04-20T06:23:33.165Z,90.20
2018-04-20T06:26:01.453Z,90.00
2018-04-20T06:28:29.797Z,89.40
2018-04-20T06:30:58.232Z,88.60
2018-04-20T06:33:26.624Z,87.30
2018-04-20T06:35:54.920Z,88.30
2018-04-20T06:38:23.277Z,86.50
2018-04-20T06:40:51.685Z,86.40
2018-04-20T06:43:20.021Z,86.60
2018-04-20T06:45:49.128Z,84.70
2018-04-20T06:48:18.242Z,84.30
2018-04-20T06:50:47.345Z,83.70
2018-04-20T06:53:16.725Z,82.30
2018-04-20T06:55:45.017Z,82.30
2018-04-20T06:58:13.308Z,83.10
2018-04-20T07:00:41.654Z,83.90
2018-04-20T07:03:09.985Z,83.30
2018-04-20T07:05:38.324Z,83.00
2018-04-20T07:08:06.664Z,82.00
2018-04-20T07:10:35.777Z,80.10
2018-04-20T07:13:04.069Z,80.10
2018-04-20T07:15:32.413Z,79.00
2018-04-20T07:18:00.705Z,78.00
2018-04-20T07:20:29.061Z,76.10
2018-04-20T07:22:58.164Z,76.30
2018-04-20T07:25:27.225Z,75.30
2018-04-20T07:27:55.744Z,75.30
2018-04-20T07:30:24.036Z,74.70
2018-04-20T07:32:52.332Z,75.20
2018-04-20T07:35:20.669Z,73.70
2018-04-20T07:37:49.012Z,75.00
2018-04-20T07:40:17.393Z,74.40
2018-04-20T07:42:45.733Z,72.50
2018-04-20T07:45:14.073Z,72.20
2018-04-20T07:47:42.517Z,72.00
2018-04-20T07:50:10.857Z,71.30
2018-04-20T07:52:39.148Z,72.50
2018-04-20T07:55:07.481Z,73.00
2018-04-20T07:57:35.773Z,72.30
2018-04-20T08:00:04.122Z,71.50
2018-04-20T08:02:32.413Z,72.70
2018-04-20T08:05:00.793Z,72.00
2018-04-20T08:07:30.613Z,72.20
2018-04-20T08:09:59.004Z,72.20
2018-04-20T08:12:27.395Z,70.90
2018-04-20T08:14:55.728Z,72.40
2018-04-20T08:17:24.100Z,71.10
2018-04-20T08:19:53.200Z,71.00
2018-04-20T08:22:21.554Z,70.40
2018-04-20T08:24:49.865Z,71.00
2018-04-20T08:27:18.145Z,68.60
2018-04-20T08:29:46.473Z,68.10
2018-04-20T08:32:15.521Z,65.90
2018-04-20T08:34:43.940Z,65.80
2018-04-20T08:37:12.228Z,68.50
2018-04-20T08:39:40.522Z,68.70
2018-04-20T08:42:08.861Z,66.50
2018-04-20T08:44:37.265Z,65.50
2018-04-20T08:47:05.548Z,65.40
2018-04-20T08:49:34.052Z,63.40
2018-04-20T08:52:02.340Z,63.40
2018-04-20T08:54:30.644Z,63.10
2018-04-20T08:56:59.067Z,62.20
2018-04-20T08:59:27.352Z,62.40
2018-04-20T09:01:55.631Z,62.00
2018-04-20T09:04:24.120Z,61.80
2018-04-20T09:06:52.392Z,62.20
2018-04-20T09:09:20.733Z,60.80
2018-04-20T09:11:49.812Z,61.40
2018-04-20T09:14:18.150Z,61.40
2018-04-20T09:16:46.432Z,61.20
2018-04-20T09:19:15.628Z,59.30
2018-04-20T09:21:44.672Z,59.50
2018-04-20T09:24:13.000Z,59.50
2018-04-20T09:26:41.284Z,58.80
2018-04-20T09:31:41.093Z,59.60
2018-04-20T09:34:09.538Z,59.60
2018-04-20T09:36:37.817Z,58.80
2018-04-20T09:39:06.148Z,58.40
2018-04-20T09:41:35.242Z,57.10
2018-04-20T09:44:03.573Z,57.00
2018-04-20T09:46:31.898Z,58.30
2018-04-20T09:49:00.176Z,58.10
2018-04-20T09:51:28.537Z,57.20
2018-04-20T09:53:56.957Z,56.40
2018-04-20T09:56:25.361Z,55.60
2018-04-20T09:58:53.650Z,56.00
2018-04-20T10:01:24.968Z,54.90
2018-04-20T10:03:57.204Z,54.40
2018-04-20T10:06:25.903Z,54.20
2018-04-20T10:08:54.180Z,53.50
2018-04-20T10:11:22.467Z,54.00
2018-04-20T10:13:50.798Z,51.70
2018-04-20T10:16:19.849Z,53.40
2018-04-20T10:18:48.177Z,53.40
2018-04-20T10:21:16.457Z,51.90
2018-04-20T10:23:44.789Z,51.50
2018-04-20T10:26:13.138Z,50.20
2018-04-20T10:28:41.424Z,50.80
2018-04-20T10:31:11.349Z,48.60
2018-04-20T10:33:39.744Z,48.50
2018-04-20T10:36:08.333Z,47.50
2018-04-20T10:38:36.618Z,47.10
2018-04-20T10:41:04.941Z,44.90
2018-04-20T10:43:34.945Z,47.30
2018-04-20T10:46:03.227Z,47.30
2018-04-20T10:48:31.587Z,47.60
2018-04-20T10:51:00.013Z,45.90
2018-04-20T10:53:28.296Z,46.60
2018-04-20T10:55:56.621Z,46.40
2018-04-20T10:58:25.675Z,45.00
2018-04-20T11:00:54.004Z,45.00
2018-04-20T11:03:22.342Z,45.50
2018-04-20T11:05:51.368Z,47.70
2018-04-20T11:08:19.705Z,47.70
2018-04-20T11:10:48.753Z,45.40
2018-04-20T11:13:17.085Z,45.40
2018-04-20T11:15:45.428Z,46.20
2018-04-20T11:18:13.708Z,44.70
2018-04-20T11:20:41.990Z,45.40
2018-04-20T11:23:10.324Z,45.10
2018-04-20T11:25:38.617Z,44.50
2018-04-20T11:28:07.317Z,45.60
2018-04-20T11:30:35.654Z,44.70
2018-04-20T11:33:03.897Z,45.10
2018-04-20T11:35:32.238Z,45.30
2018-04-20T11:38:00.516Z,44.60
2018-04-20T11:40:29.561Z,45.10
2018-04-20T11:42:59.504Z,44.40
2018-04-20T11:45:27.801Z,46.70
2018-04-20T11:47:56.293Z,46.60
2018-04-20T11:50:24.573Z,46.70
2018-04-20T11:52:52.852Z,44.90
2018-04-20T11:55:21.361Z,45.70
2018-04-20T11:57:49.642Z,46.40
2018-04-20T12:00:17.926Z,45.80
2018-04-20T12:02:46.252Z,46.00
2018-04-20T12:05:15.298Z,45.70
2018-04-20T12:07:43.637Z,45.10
2018-04-20T12:10:12.017Z,44.50
2018-04-20T12:12:40.321Z,43.50
2018-04-20T12:15:08.653Z,42.30
2018-04-20T12:17:37.062Z,44.90
2018-04-20T12:20:05.349Z,44.70
2018-04-20T12:22:33.678Z,46.10
2018-04-20T12:25:01.967Z,44.40
2018-04-20T12:27:30.365Z,45.80
2018-04-20T12:29:58.649Z,44.80
2018-04-20T12:32:26.985Z,41.00
2018-04-20T12:34:55.323Z,40.50
2018-04-20T12:37:23.673Z,41.50
2018-04-20T12:39:52.005Z,40.20
2018-04-20T12:42:20.285Z,41.00
2018-04-20T12:44:48.632Z,40.90
2018-04-20T12:47:16.912Z,41.00
2018-04-20T12:49:45.266Z,39.90
2018-04-20T12:52:13.548Z,40.90
2018-04-20T12:54:41.833Z,40.60
2018-04-20T12:57:10.189Z,40.50
2018-04-20T12:59:38.524Z,40.80
2018-04-20T13:02:06.806Z,40.20
2018-04-20T13:04:35.088Z,40.00
2018-04-20T13:07:03.433Z,41.60
2018-04-20T13:09:31.777Z,40.30
2018-04-20T13:12:00.315Z,39.80
2018-04-20T13:14:29.379Z,40.30
2018-04-20T13:16:57.738Z,40.40
2018-04-20T13:19:26.013Z,41.30
2018-04-20T13:21:54.748Z,40.70
2018-04-20T13:24:24.985Z,39.10
2018-04-20T13:26:54.398Z,39.30
2018-04-20T13:29:22.789Z,39.30
2018-04-20T13:31:51.065Z,39.80
2018-04-20T13:34:19.477Z,39.70
2018-04-20T13:36:47.765Z,37.60
2018-04-20T13:39:16.157Z,39.00
2018-04-20T13:41:44.449Z,38.70
2018-04-20T13:44:12.733Z,38.70
2018-04-20T13:46:41.120Z,38.70
2018-04-20T13:49:09.397Z,37.80
2018-04-20T13:51:37.724Z,39.20
2018-04-20T13:54:06.056Z,38.20
2018-04-20T13:56:34.393Z,38.90
2018-04-20T13:59:02.781Z,39.80
2018-04-20T14:01:31.169Z,38.50
2018-04-20T14:03:59.501Z,38.70
2018-04-20T14:06:27.854Z,38.00
2018-04-20T14:08:56.286Z,37.20
2018-04-20T14:11:24.769Z,38.00
2018-04-20T14:13:53.853Z,38.40
2018-04-20T14:16:22.133Z,38.40
2018-04-20T14:18:50.528Z,37.80
2018-04-20T14:21:18.874Z,37.00
2018-04-20T14:23:47.201Z,37.00
2018-04-20T14:26:15.813Z,37.30
2018-04-20T14:28:44.094Z,36.90
2018-04-20T14:31:12.383Z,34.90
2018-04-20T14:33:40.725Z,35.40
2018-04-20T14:36:09.061Z,35.50
2018-04-20T14:38:37.449Z,34.40
2018-04-20T14:41:05.734Z,34.60
2018-04-20T14:43:34.085Z,31.90
2018-04-20T14:46:02.526Z,31.50
2018-04-20T14:48:30.913Z,31.00
2018-04-20T14:50:59.282Z,30.60
2018-04-20T14:53:27.601Z,30.70
2018-04-20T14:55:55.881Z,31.40
2018-04-20T14:58:24.372Z,30.50
2018-04-20T15:00:52.657Z,31.40
2018-04-20T15:03:20.942Z,32.90
2018-04-20T15:05:49.289Z,32.10
2018-04-20T15:08:17.633Z,32.70
2018-04-20T15:10:45.917Z,32.40
2018-04-20T15:13:14.366Z,32.40
2018-04-20T15:15:42.621Z,31.10
2018-04-20T15:18:17.041Z,32.50
2018-04-20T15:20:45.366Z,33.70
2018-04-20T15:23:13.717Z,33.50
2018-04-20T15:25:42.010Z,32.60
2018-04-20T15:28:10.340Z,29.60
2018-04-20T15:30:38.626Z,28.70
2018-04-20T15:33:07.720Z,28.00
2018-04-20T15:35:36.769Z,26.90
2018-04-20T15:38:05.100Z,26.90
2018-04-20T15:40:33.576Z,25.80
2018-04-20T15:43:01.873Z,23.70
2018-04-20T15:45:30.273Z,24.10
2018-04-20T15:47:58.560Z,23.00
2018-04-20T15:50:26.938Z,22.30
2018-04-20T15:52:55.337Z,21.40
2018-04-20T15:55:23.822Z,22.30
2018-04-20T15:57:52.125Z,22.00
2018-04-20T16:00:20.512Z,22.40
2018-04-20T16:02:48.789Z,21.60
2018-04-20T16:05:17.069Z,22.50
2018-04-20T16:07:45.401Z,22.50
2018-04-20T16:10:14.449Z,23.00
2018-04-20T16:12:42.792Z,22.70
2018-04-20T16:15:11.122Z,22.70
2018-04-20T16:17:39.404Z,22.10
2018-04-20T16:20:07.779Z,21.90
2018-04-20T16:22:36.141Z,21.90
2018-04-20T16:25:04.489Z,22.60
2018-04-20T16:27:32.769Z,22.50
2018-04-20T16:30:01.111Z,23.20
2018-04-20T16:32:29.437Z,22.70
2018-04-20T16:34:58.489Z,23.70
2018-04-20T16:37:26.892Z,23.70
2018-04-20T16:39:55.285Z,24.30
2018-04-20T16:42:25.085Z,24.30
2018-04-20T16:44:53.472Z,24.20
2018-04-20T16:47:21.756Z,24.50
2018-04-20T16:49:50.041Z,24.90
2018-04-20T16:52:18.369Z,25.60
2018-04-20T16:54:46.704Z,26.60
2018-04-20T16:57:14.988Z,27.60
2018-04-20T16:59:43.268Z,27.70
2018-04-20T17:02:12.364Z,29.70
2018-04-20T17:04:40.651Z,29.70
2018-04-20T17:07:09.281Z,30.50
2018-04-20T17:09:37.526Z,31.90
2018-04-20T17:12:05.909Z,32.30
2018-04-20T17:14:34.244Z,33.40
2018-04-20T17:17:03.345Z,34.70
2018-04-20T17:19:32.393Z,35.60
2018-04-20T17:22:00.729Z,35.60
2018-04-20T17:24:29.843Z,36.50
2018-04-20T17:26:58.933Z,36.90
2018-04-20T17:29:27.221Z,36.90
2018-04-20T17:31:55.549Z,37.90
2018-04-20T17:34:23.888Z,38.20
2018-04-20T17:36:52.221Z,38.40
2018-04-20T17:39:20.501Z,38.80
2018-04-20T17:41:49.673Z,39.40
2018-04-20T17:44:17.965Z,39.30
2018-04-20T17:46:46.293Z,39.40
2018-04-20T17:49:15.361Z,40.30
2018-04-20T17:51:43.646Z,40.30
2018-04-20T17:54:11.985Z,40.50
2018-04-20T17:56:41.245Z,41.30
2018-04-20T17:59:09.517Z,41.20
2018-04-20T18:01:37.845Z,41.10
2018-04-20T18:04:06.135Z,41.70
2018-04-20T18:06:34.465Z,42.60
2018-04-20T18:09:02.753Z,42.50
2018-04-20T18:11:31.037Z,43.50
2018-04-20T18:13:59.491Z,43.40
2018-04-20T18:16:27.976Z,44.00
2018-04-20T18:18:56.369Z,44.30
2018-04-20T18:21:24.761Z,43.90
2018-04-20T18:23:54.033Z,44.30
2018-04-20T18:26:22.365Z,44.60
2018-04-20T18:28:50.693Z,44.50
2018-04-20T18:31:19.045Z,45.30
2018-04-20T18:33:47.373Z,46.20
2018-04-20T18:36:16.942Z,47.10
2018-04-20T18:38:45.264Z,47.10
2018-04-20T18:41:14.353Z,47.80
2018-04-20T18:43:42.685Z,47.80
2018-04-20T18:46:10.973Z,48.00
2018-04-20T18:48:39.521Z,48.40
2018-04-20T18:51:07.802Z,48.10
2018-04-20T18:53:36.092Z,49.30
2018-04-20T18:56:04.413Z,49.70
2018-04-20T18:58:32.696Z,50.30
2018-04-20T19:01:01.048Z,49.80
2018-04-20T19:03:29.333Z,49.50
2018-04-20T19:05:57.661Z,50.50
2018-04-20T19:08:26.033Z,52.90
2018-04-20T19:10:54.325Z,52.10
2018-04-20T19:13:22.656Z,53.10
2018-04-20T19:15:51.721Z,53.40
2018-04-20T19:18:20.049Z,53.40
2018-04-20T19:20:49.100Z,55.80
2018-04-20T19:23:17.425Z,55.80
2018-04-20T19:25:46.592Z,57.10
2018-04-20T19:28:14.925Z,56.50
2018-04-20T19:30:43.254Z,56.90
2018-04-20T19:33:11.597Z,57.10
2018-04-20T19:35:40.697Z,56.30
2018-04-20T19:38:09.865Z,57.30
2018-04-20T19:40:38.151Z,57.30
2018-04-20T19:43:06.462Z,58.60
2018-04-20T19:45:34.823Z,57.70
2018-04-20T19:48:03.100Z,58.00
2018-04-20T19:50:31.385Z,58.50
2018-04-20T19:52:59.721Z,58.80
2018-04-20T19:55:28.013Z,59.50
2018-04-20T19:57:56.381Z,60.30
2018-04-20T20:00:25.485Z,60.00
2018-04-20T20:02:53.847Z,60.00
2018-04-20T20:05:22.176Z,59.90
2018-04-20T20:07:51.306Z,59.60
2018-04-20T20:10:20.439Z,59.80
2018-04-20T20:12:48.765Z,59.80
2018-04-20T20:15:17.245Z,60.80
2018-04-20T20:17:45.538Z,62.30
2018-04-20T20:20:13.826Z,63.00
2018-04-20T20:22:42.165Z,64.20
2018-04-20T20:25:10.474Z,64.60
2018-04-20T20:27:39.537Z,64.80
2018-04-20T20:30:07.878Z,64.70
2018-04-20T20:32:36.433Z,65.30
2018-04-20T20:35:04.725Z,65.40
2018-04-20T20:37:33.013Z,65.90
2018-04-20T20:40:01.369Z,65.20
2018-04-20T20:42:29.653Z,65.60
2018-04-20T20:44:57.945Z,66.70
2018-04-20T20:47:26.280Z,67.00
2018-04-20T20:49:54.627Z,67.10
2018-04-20T20:52:22.969Z,67.00
2018-04-20T20:54:51.365Z,67.60
2018-04-20T20:57:20.439Z,67.30
2018-04-20T20:59:48.776Z,67.30
2018-04-20T21:02:17.140Z,68.00
2018-04-20T21:04:45.430Z,67.70
2018-04-20T21:07:13.817Z,67.70
2018-04-20T21:09:42.096Z,66.70
2018-04-20T21:12:10.456Z,67.70
2018-04-20T21:14:38.773Z,67.70
2018-04-20T21:17:07.050Z,68.00
2018-04-20T21:19:35.378Z,69.10
2018-04-20T21:22:04.473Z,68.30
2018-04-20T21:24:33.590Z,67.80
2018-04-20T21:27:02.684Z,67.90
2018-04-20T21:29:30.997Z,67.30
2018-04-20T21:32:00.093Z,68.20
2018-04-20T21:34:29.816Z,67.70
2018-04-20T21:36:58.129Z,67.70
2018-04-20T21:39:27.286Z,67.70
2018-04-20T21:41:55.655Z,67.80
2018-04-20T21:44:23.984Z,67.60
2018-04-20T21:46:53.059Z,68.20
2018-04-20T21:49:21.573Z,68.20
2018-04-20T21:51:50.669Z,69.10
2018-04-20T21:54:19.097Z,69.00
2018-04-20T21:56:47.426Z,69.00
2018-04-20T21:59:15.707Z,70.10
2018-04-20T22:01:44.004Z,70.30
2018-04-20T22:04:13.565Z,70.90
2018-04-20T22:06:43.396Z,71.70
2018-04-20T22:09:11.780Z,71.60
2018-04-20T22:11:40.118Z,71.30
2018-04-20T22:14:08.472Z,71.70
2018-04-20T22:16:38.261Z,72.20
2018-04-20T22:19:06.605Z,72.20
2018-04-20T22:21:35.689Z,72.50
2018-04-20T22:24:04.033Z,72.50
2018-04-20T22:26:32.329Z,73.30
2018-04-20T22:29:00.621Z,72.50
2018-04-20T22:31:28.969Z,73.20
2018-04-20T22:33:58.024Z,74.30
2018-04-20T22:36:26.425Z,74.20
2018-04-20T22:38:54.734Z,74.70
2018-04-20T22:41:23.941Z,76.10
2018-04-20T22:43:52.285Z,76.10
2018-04-20T22:46:21.133Z,75.90
2018-04-20T22:48:50.141Z,75.20
2018-04-20T22:51:19.244Z,75.10
2018-04-20T22:53:47.581Z,74.40
2018-04-20T22:56:15.929Z,74.40
2018-04-20T22:58:44.273Z,75.10
2018-04-20T23:01:12.605Z,75.30
2018-04-20T23:03:41.013Z,76.40
2018-04-20T23:06:09.356Z,77.60
2018-04-20T23:08:37.788Z,77.30
2018-04-20T23:11:06.121Z,77.30
2018-04-20T23:13:34.422Z,77.20
2018-04-20T23:16:02.860Z,76.80
2018-04-20T23:18:32.708Z,78.40
2018-04-20T23:21:01.829Z,77.80
2018-04-20T23:23:30.121Z,77.70
2018-04-20T23:25:58.409Z,77.70
2018-04-20T23:28:26.757Z,77.40
2018-04-20T23:30:55.108Z,77.50
2018-04-20T23:33:23.544Z,77.70
2018-04-20T23:35:51.956Z,77.70
2018-04-20T23:38:21.034Z,78.60
2018-04-20T23:40:49.433Z,78.20
2018-04-20T23:43:18.493Z,79.20
2018-04-20T23:45:46.780Z,79.20
2018-04-20T23:48:15.273Z,78.70
2018-04-20T23:50:43.728Z,78.30
2018-04-20T23:53:12.089Z,78.50
2018-04-20T23:55:40.390Z,78.90
2018-04-20T23:58:08.739Z,79.00
